Weather at Vorskoe Airstrip

Public forecast

Using degrees Celsius for public forecast. Weather courtesy of forecast.io.

Closest aviation weather report (METAR) to Vorskoe Airstrip

Closest report is Khrabrovo Airport, 19.9 nm (36.8 km) NW.

2024/07/20 20:30 (retrieved 34 minutes ago)

UMKK 202030Z 00000MPS 9999 MIFG NSC 15/15 Q1012 R24/CLRD95 NOSIG RMK QFE758/1011

Closest aviation forecast (TAF) to Vorskoe Airstrip

Closest forecast is Khrabrovo Airport, 19.9 nm (36.8 km) NW.

2024/07/20 21:21 (retrieved 0 seconds ago)

TAF UMKK 201957Z 2021/2121 VRB01MPS 6000 FEW003 SCT030 TEMPO 2021/2105 0300 FG BKN002 BECMG 2106/2108 02003G10MPS BECMG 2119/2120 35003G08MPS